Current Conditions
Partly Cloudy
Conditions



Pressure
1022.01 (hPa) - 30.18 (inHG)
Visibility

9.7 (km) - 6.0 (miles)
Temperature
13  °C
Temperature
2  °C
Dewpoint
47  %
 Humidity
Wind Speed
23  km/h
12  kts
14  mph
6.3  m/s
Wind Direction
N
45°
E
90°
135°
S
180°
225°
W
270°
315°
 270°

Due West
Airport Data
EHAM
Amsterdam Airport Schiphol
Metar :EHAM 141355Z 27012KT 230V300 9999 FEW035 13/02 Q1022 NOSIG
Sun 14th April 14:55 pm
Raw Metar Info
Raw METAR is the most common format in the world for the transmission of observational weather data. It is highly standardized through the International Civil Aviation Organization (ICAO), which allows it to be understood throughout most of the world.
API Info
Data Provided by
https://www.checkwx.com/weather/EHAM

Aviation Weather providing METAR, TAF, AIRMET, SIGMET and OUTLOOK Weather Reports
© Info
CSS/SVG/PHP scripts were developed by weather34.com for use in the weather34 template © 2015-2024

Guide Info provided by Metar-Wikipedia